»·PEaware :: BOE102 KMFR-KBFI

BOE102 :: KMFR-KBFI

FLIGHT INFORMATION

Flight Status: Arrived
Operator:
Boeing Commercial Airplane Group
More flights by this operator :: More flights under this callsign
Pilot: Cole F. (14495)
Aircraft: BOEING 727-200
(B722)
More flights by this aircraft type
Origin: KMFR Rogue Valley Intl-Medford
United States
Destination: KBFI Boeing Field/King Co Intl
United States
More flights between these airports :: More routes between these airports
Route: JKSN1 OED UBG OLM2
File this flight plan on PilotEdge
Remarks:
Altitude:
(Current/Filed)
32,000ft
Speed:
(Current/Filed)
478kts
Departed: 07-Nov-18 11:29 AM
Arrived: 07-Nov-18 12:39 PM
Distance/Time
Traveled:
311nm/1:09
Distance/Time
To Go:
Arrived

Flight Plot

Page will automatically refresh every two minutes.

Flight plan parsing failed; only flown route is shown


Map Options




Map Legend


Flown Route
Filed Route
Departure Airport
Arrival Airport
Navaid (VOR, NDB)
Fix

Horizontal Profiles

Position Reports

Time Latitude Longitude Heading Altitude Ground
Speed
07-Nov-18 11:10 42.371809 -122.878265 24 1345ft 0kts
07-Nov-18 11:11 42.371809 -122.878265 24 1345ft 0kts
07-Nov-18 11:12 42.371809 -122.878265 24 1345ft 0kts
07-Nov-18 11:13 42.371809 -122.878265 24 1345ft 0kts
07-Nov-18 11:14 42.371809 -122.878265 24 1345ft 0kts
07-Nov-18 11:15 42.371809 -122.878265 24 1345ft 0kts
07-Nov-18 11:16 42.371809 -122.878265 24 1345ft 0kts
07-Nov-18 11:17 42.371809 -122.878265 24 1345ft 0kts
07-Nov-18 11:18 42.371809 -122.878265 24 1345ft 0kts
07-Nov-18 11:19 42.371809 -122.878265 24 1345ft 0kts
07-Nov-18 11:20 42.371809 -122.878265 24 1345ft 0kts
07-Nov-18 11:21 42.371809 -122.878265 24 1345ft 0kts
07-Nov-18 11:22 42.371809 -122.878265 24 1345ft 0kts
07-Nov-18 11:23 42.372300 -122.877962 24 1345ft 0kts
07-Nov-18 11:24 42.372335 -122.877941 22 1345ft 2kts
07-Nov-18 11:25 42.372681 -122.875816 113 1345ft 10kts
07-Nov-18 11:26 42.375495 -122.875297 358 1345ft 14kts
07-Nov-18 11:27 42.379639 -122.877329 338 1345ft 17kts
07-Nov-18 11:28 42.383983 -122.879615 338 1345ft 14kts
07-Nov-18 11:29 42.385508 -122.880370 5 1345ft 0kts
07-Nov-18 11:30 42.385508 -122.880370 5 1345ft 0kts
07-Nov-18 11:31 42.385901 -122.879096 130 1345ft 8kts
07-Nov-18 11:32 42.362772 -122.866999 159 1844ft 154kts
07-Nov-18 11:33 42.340832 -122.896847 316 3589ft 163kts
07-Nov-18 11:34 42.389739 -122.929145 335 4984ft 241kts
07-Nov-18 11:35 42.457528 -122.936467 17 8178ft 262kts
07-Nov-18 11:36 42.528790 -122.930527 350 10976ft 272kts
07-Nov-18 11:37 42.608287 -122.945631 351 13177ft 293kts
07-Nov-18 11:38 42.689739 -122.957909 351 16258ft 301kts
07-Nov-18 11:39 42.773141 -122.975075 354 18795ft 311kts
07-Nov-18 11:40 42.860898 -122.977245 355 21025ft 322kts
07-Nov-18 11:41 42.951075 -122.977979 355 23043ft 330kts
07-Nov-18 11:42 43.043889 -122.978170 355 24807ft 338kts
07-Nov-18 11:43 43.138453 -122.978194 354 26310ft 347kts
07-Nov-18 11:44 43.235738 -122.978185 354 27667ft 355kts
07-Nov-18 11:45 43.335200 -122.978182 353 28868ft 363kts
07-Nov-18 11:46 43.436678 -122.978168 353 29931ft 370kts
07-Nov-18 11:47 43.540316 -122.978154 353 30871ft 377kts
07-Nov-18 11:48 43.645871 -122.978164 353 31725ft 383kts
07-Nov-18 11:49 43.752802 -122.978206 353 32423ft 390kts
07-Nov-18 11:50 43.864232 -122.978297 353 32427ft 412kts
07-Nov-18 11:51 43.981417 -122.978291 353 32425ft 432kts
07-Nov-18 11:52 44.102714 -122.978249 353 32421ft 447kts
07-Nov-18 11:53 44.227037 -122.978210 353 32431ft 455kts
07-Nov-18 11:54 44.354145 -122.978205 353 32428ft 460kts
07-Nov-18 11:55 44.482087 -122.978193 353 32426ft 463kts
07-Nov-18 11:56 44.610994 -122.978184 354 32424ft 464kts
07-Nov-18 11:57 44.739846 -122.978182 354 32421ft 464kts
07-Nov-18 11:58 44.868048 -122.978191 354 32420ft 460kts
07-Nov-18 11:59 44.995468 -122.978200 354 32421ft 457kts
07-Nov-18 12:00 45.120095 -122.978212 354 32431ft 452kts
07-Nov-18 12:01 45.244553 -122.978188 354 32430ft 448kts
07-Nov-18 12:02 45.368452 -122.978139 355 32427ft 445kts
07-Nov-18 12:03 45.488629 -122.972812 355 32444ft 415kts
07-Nov-18 12:04 45.598628 -122.969791 355 31904ft 385kts
07-Nov-18 12:05 45.704008 -122.965215 356 30302ft 376kts
07-Nov-18 12:06 45.807045 -122.960229 357 28773ft 368kts
07-Nov-18 12:07 45.907725 -122.955210 358 27519ft 359kts
07-Nov-18 12:08 46.006638 -122.950436 358 26168ft 352kts
07-Nov-18 12:09 46.102008 -122.945659 359 24904ft 345kts
07-Nov-18 12:10 46.183584 -122.941727 359 23758ft 338kts
07-Nov-18 12:11 46.274017 -122.937184 0 22491ft 323kts
07-Nov-18 12:12 46.359991 -122.932953 0 20992ft 318kts
07-Nov-18 12:13 46.447057 -122.928605 1 19291ft 315kts
07-Nov-18 12:14 46.533837 -122.924244 1 17871ft 310kts
07-Nov-18 12:15 46.619155 -122.919941 2 16422ft 307kts
07-Nov-18 12:16 46.703782 -122.915661 2 15013ft 304kts
07-Nov-18 12:17 46.787764 -122.911393 2 13640ft 302kts
07-Nov-18 12:18 46.873839 -122.906964 2 13490ft 314kts
07-Nov-18 12:19 46.960869 -122.902447 2 13468ft 308kts
07-Nov-18 12:20 47.030113 -122.846461 42 13427ft 286kts
07-Nov-18 12:21 47.084754 -122.764220 37 12639ft 280kts
07-Nov-18 12:22 47.138465 -122.692554 39 11795ft 278kts
07-Nov-18 12:23 47.194532 -122.619670 39 10209ft 278kts
07-Nov-18 12:24 47.250556 -122.548038 38 9313ft 269kts
07-Nov-18 12:25 47.305625 -122.479676 37 8306ft 266kts
07-Nov-18 12:26 47.360485 -122.411973 37 7313ft 266kts
07-Nov-18 12:27 47.401731 -122.333926 65 7006ft 266kts
07-Nov-18 12:28 47.428189 -122.237918 65 6968ft 254kts
07-Nov-18 12:29 47.426986 -122.153645 125 6903ft 206kts
07-Nov-18 12:30 47.396116 -122.092594 125 5381ft 193kts
07-Nov-18 12:31 47.364591 -122.029811 124 3270ft 189kts
07-Nov-18 12:32 47.319797 -122.012510 195 3933ft 195kts
07-Nov-18 12:33 47.268864 -122.034845 219 3152ft 190kts
07-Nov-18 12:34 47.276761 -122.090105 330 2571ft 138kts
07-Nov-18 12:35 47.311382 -122.118450 331 2608ft 148kts
07-Nov-18 12:36 47.348793 -122.149757 331 2591ft 156kts
07-Nov-18 12:37 47.384153 -122.179516 331 2597ft 144kts
07-Nov-18 12:38 47.420065 -122.209635 331 2213ft 154kts
07-Nov-18 12:39 47.454416 -122.238622 330 1557ft 136kts
07-Nov-18 12:40 47.486474 -122.265646 330 801ft 131kts
07-Nov-18 12:41 47.517415 -122.291768 329 109ft 126kts
07-Nov-18 12:42 47.535315 -122.306997 330 30ft 36kts

Navigation Log

Ident Type
Flight plan parsing failed, navigation log unavailable